createdAt,value
2024-02-15T00:04:23.943Z,1.10
2024-02-15T00:09:27.229Z,1.20
2024-02-15T00:14:32.707Z,1.10
2024-02-15T00:19:35.637Z,1.30
2024-02-15T00:24:39.749Z,1.37
2024-02-15T00:29:44.261Z,1.30
2024-02-15T00:34:48.149Z,1.20
2024-02-15T00:39:51.325Z,1.30
2024-02-15T00:44:55.674Z,1.50
2024-02-15T00:49:59.488Z,1.10
2024-02-15T00:55:02.531Z,1.07
2024-02-15T01:00:10.631Z,1.10
2024-02-15T01:05:16.745Z,1.20
2024-02-15T01:10:19.756Z,1.00
2024-02-15T01:15:24.089Z,0.93
2024-02-15T01:20:27.803Z,1.00
2024-02-15T01:25:31.395Z,1.10
2024-02-15T01:30:35.689Z,0.90
2024-02-15T01:35:38.768Z,1.13
2024-02-15T01:40:41.679Z,1.17
2024-02-15T01:45:48.150Z,0.90
2024-02-15T01:50:52.993Z,0.90
2024-02-15T01:55:58.718Z,1.00
2024-02-15T02:01:04.246Z,1.10
2024-02-15T02:06:07.771Z,1.00
2024-02-15T02:11:10.997Z,0.90
2024-02-15T02:16:28.839Z,1.03
2024-02-15T02:21:31.890Z,1.00
2024-02-15T02:26:36.803Z,1.10
2024-02-15T02:31:40.050Z,1.30
2024-02-15T02:36:46.784Z,0.90
2024-02-15T02:41:51.095Z,1.20
2024-02-15T02:46:54.040Z,1.10
2024-02-15T02:51:56.896Z,0.90
2024-02-15T02:57:01.220Z,0.90
2024-02-15T03:02:04.886Z,1.00
2024-02-15T03:07:08.117Z,1.10
2024-02-15T03:12:12.460Z,1.27
2024-02-15T03:17:15.349Z,1.07
2024-02-15T03:22:18.219Z,1.00
2024-02-15T03:27:24.303Z,1.10
2024-02-15T03:32:27.457Z,1.20
2024-02-15T03:37:30.946Z,1.20
2024-02-15T03:42:37.872Z,1.37
2024-02-15T03:47:41.127Z,1.10
2024-02-15T03:52:44.887Z,1.50
2024-02-15T03:57:49.282Z,1.03
2024-02-15T04:02:52.339Z,0.97
2024-02-15T04:07:55.415Z,1.10
2024-02-15T04:13:00.172Z,1.20
2024-02-15T04:18:03.245Z,1.20
2024-02-15T04:23:06.170Z,1.10
2024-02-15T04:28:10.488Z,1.00
2024-02-15T04:33:13.752Z,0.83
2024-02-15T04:38:16.865Z,1.00
2024-02-15T04:43:21.445Z,1.10
2024-02-15T04:48:26.150Z,1.00
2024-02-15T04:53:31.281Z,0.83
2024-02-15T04:58:37.740Z,0.90
2024-02-15T05:03:40.707Z,1.10
2024-02-15T05:08:44.511Z,0.83
2024-02-15T05:13:51.544Z,1.40
2024-02-15T05:18:55.387Z,3.53
2024-02-15T05:23:58.782Z,2.70
2024-02-15T05:29:03.176Z,3.63
2024-02-15T05:34:09.156Z,2.10
2024-02-15T05:39:15.683Z,1.40
2024-02-15T05:44:21.758Z,3.67
2024-02-15T05:49:25.296Z,2.50
2024-02-15T05:54:28.322Z,1.00
2024-02-15T05:59:32.708Z,0.90
2024-02-15T06:04:35.738Z,1.00
2024-02-15T06:09:41.033Z,3.10
2024-02-15T06:14:45.417Z,1.30
2024-02-15T06:19:48.531Z,1.00
2024-02-15T06:24:51.784Z,1.00
2024-02-15T06:30:13.697Z,0.90
2024-02-15T06:35:34.970Z,0.87
2024-02-15T06:40:38.227Z,1.20
2024-02-15T06:45:47.626Z,1.07
2024-02-15T06:50:50.895Z,1.03
2024-02-15T06:55:54.008Z,1.20
2024-02-15T07:00:58.550Z,1.20
2024-02-15T07:06:01.914Z,1.17
2024-02-15T07:11:05.445Z,1.00
2024-02-15T07:16:10.913Z,1.07
2024-02-15T07:21:15.366Z,1.10
2024-02-15T07:26:20.382Z,1.00
2024-02-15T07:31:25.149Z,1.00
2024-02-15T07:36:28.694Z,1.20
2024-02-15T07:41:34.203Z,1.20
2024-02-15T07:46:40.003Z,1.40
2024-02-15T07:51:42.999Z,1.60
2024-02-15T07:56:45.990Z,1.30
2024-02-15T08:01:51.545Z,1.27
2024-02-15T08:06:55.211Z,1.30
2024-02-15T08:11:59.612Z,1.20
2024-02-15T08:17:04.659Z,1.37
2024-02-15T08:22:08.574Z,1.30
2024-02-15T08:27:12.241Z,1.17
2024-02-15T08:32:16.546Z,1.57
2024-02-15T08:37:19.798Z,1.40
2024-02-15T08:42:23.480Z,1.50
2024-02-15T08:47:28.108Z,1.50
2024-02-15T08:52:31.040Z,1.80
2024-02-15T08:57:33.985Z,1.30
2024-02-15T09:02:38.291Z,1.60
2024-02-15T09:07:42.597Z,1.30
2024-02-15T09:12:48.453Z,1.30
2024-02-15T09:17:55.844Z,1.30
2024-02-15T09:22:59.089Z,1.40
2024-02-15T09:28:02.032Z,1.37
2024-02-15T09:33:07.030Z,1.30
2024-02-15T09:38:10.751Z,1.20
2024-02-15T09:43:14.984Z,1.30
2024-02-15T09:48:22.469Z,1.20
2024-02-15T09:53:26.996Z,1.40
2024-02-15T09:58:32.974Z,1.30
2024-02-15T10:03:41.751Z,1.40
2024-02-15T10:08:44.853Z,1.57
2024-02-15T10:13:48.680Z,1.30
2024-02-15T10:18:53.384Z,1.50
2024-02-15T10:24:07.084Z,1.43
2024-02-15T10:29:11.826Z,1.90
2024-02-15T10:34:16.640Z,1.60
2024-02-15T10:39:21.552Z,1.90
2024-02-15T10:44:27.569Z,1.50
2024-02-15T10:49:31.933Z,1.60
2024-02-15T10:54:49.020Z,1.87
2024-02-15T10:59:58.677Z,1.50
2024-02-15T11:05:11.220Z,1.50
2024-02-15T11:10:18.093Z,1.50
2024-02-15T11:15:49.972Z,1.47
2024-02-15T11:20:57.332Z,1.43
2024-02-15T11:26:01.999Z,1.93
2024-02-15T11:31:05.390Z,1.70
2024-02-15T11:36:12.866Z,1.83
2024-02-15T11:41:21.444Z,1.73
2024-02-15T11:46:26.829Z,1.90
2024-02-15T11:51:34.668Z,1.97
2024-02-15T11:57:06.356Z,2.00
2024-02-15T12:02:26.870Z,1.80
2024-02-15T12:07:48.940Z,1.80
2024-02-15T12:13:13.842Z,1.70
2024-02-15T12:18:34.713Z,1.73
2024-02-15T12:23:42.520Z,1.70
2024-02-15T12:28:47.074Z,1.70
2024-02-15T12:34:02.856Z,2.20
2024-02-15T12:39:13.579Z,1.80
2024-02-15T12:44:18.289Z,1.60
2024-02-15T12:49:31.747Z,1.80
2024-02-15T12:54:36.128Z,1.80
2024-02-15T12:59:39.678Z,1.60
2024-02-15T13:04:42.617Z,1.80
2024-02-15T13:09:49.001Z,1.73
2024-02-15T13:14:52.756Z,1.83
2024-02-15T13:20:03.510Z,2.20
2024-02-15T13:25:10.103Z,1.70
2024-02-15T13:30:14.141Z,1.60
2024-02-15T13:35:19.496Z,1.20
2024-02-15T13:40:24.955Z,1.20
2024-02-15T13:45:33.488Z,1.20
2024-02-15T13:50:38.576Z,1.17
2024-02-15T13:55:43.214Z,1.10
2024-02-15T14:00:46.483Z,1.00
2024-02-15T14:05:50.970Z,1.37
2024-02-15T14:10:55.527Z,1.40
2024-02-15T14:15:58.830Z,1.20
2024-02-15T14:21:01.846Z,1.53
2024-02-15T14:26:08.147Z,1.10
2024-02-15T14:31:30.807Z,1.20
2024-02-15T14:36:33.726Z,1.00
2024-02-15T14:41:49.102Z,1.27
2024-02-15T14:46:53.029Z,1.20
2024-02-15T14:51:55.933Z,1.37
2024-02-15T14:57:00.656Z,1.40
2024-02-15T15:02:11.946Z,1.10
2024-02-15T15:07:33.036Z,0.90
2024-02-15T15:12:41.285Z,1.20
2024-02-15T15:17:44.567Z,1.60
2024-02-15T15:22:47.691Z,1.20
2024-02-15T15:27:52.929Z,1.80
2024-02-15T15:32:56.335Z,1.70
2024-02-15T15:38:00.199Z,1.90
2024-02-15T15:43:06.236Z,1.90
2024-02-15T15:48:09.584Z,1.80
2024-02-15T15:53:12.969Z,1.53
2024-02-15T15:58:17.272Z,1.70
2024-02-15T16:03:20.568Z,2.20
2024-02-15T16:08:23.769Z,1.60
2024-02-15T16:13:28.040Z,3.00
2024-02-15T16:18:31.029Z,2.77
2024-02-15T16:23:33.977Z,4.13
2024-02-15T16:33:49.321Z,5.13
2024-02-15T16:38:52.445Z,5.40
2024-02-15T16:43:58.132Z,6.40
2024-02-15T16:49:01.482Z,3.63
2024-02-15T16:54:06.183Z,7.40
2024-02-15T16:59:11.435Z,9.17
2024-02-15T17:04:16.821Z,9.43
2024-02-15T17:09:20.308Z,10.63
2024-02-15T17:14:25.020Z,13.13
2024-02-15T17:19:28.113Z,9.80
2024-02-15T17:24:32.542Z,8.83
2024-02-15T17:29:37.657Z,8.60
2024-02-15T17:34:40.570Z,8.40
2024-02-15T17:39:44.555Z,8.57
2024-02-15T17:44:50.062Z,8.93
2024-02-15T17:49:54.797Z,9.70
2024-02-15T17:54:57.818Z,9.60
2024-02-15T18:00:02.122Z,9.07
2024-02-15T18:05:25.210Z,9.73
2024-02-15T18:10:28.190Z,11.77
2024-02-15T18:15:35.308Z,10.27
2024-02-15T18:20:38.576Z,11.63
2024-02-15T18:25:41.718Z,15.67
2024-02-15T18:30:48.627Z,11.67
2024-02-15T18:35:52.949Z,10.20
2024-02-15T18:40:58.340Z,17.20
2024-02-15T18:46:03.097Z,14.03
2024-02-15T18:51:06.667Z,14.07
2024-02-15T18:56:15.403Z,16.63
2024-02-15T19:01:20.025Z,12.57
2024-02-15T19:06:23.060Z,13.40
2024-02-15T19:11:27.642Z,11.73
2024-02-15T19:16:33.641Z,11.37
2024-02-15T19:21:37.452Z,10.30
2024-02-15T19:26:42.290Z,9.60
2024-02-15T19:31:48.268Z,9.90
2024-02-15T19:36:55.790Z,10.10
2024-02-15T19:42:01.162Z,9.70
2024-02-15T19:47:05.941Z,9.20
2024-02-15T19:52:10.511Z,9.87
2024-02-15T19:57:13.444Z,11.60
2024-02-15T20:02:18.127Z,12.10
2024-02-15T20:07:29.569Z,10.30
2024-02-15T20:12:32.681Z,8.70
2024-02-15T20:17:37.407Z,7.90
2024-02-15T20:22:42.739Z,8.30
2024-02-15T20:27:46.125Z,9.70
2024-02-15T20:32:50.625Z,9.67
2024-02-15T20:37:53.816Z,11.57
2024-02-15T20:42:57.436Z,10.37
2024-02-15T20:48:03.218Z,12.07
2024-02-15T20:53:06.452Z,13.17
2024-02-15T20:58:09.413Z,13.23
2024-02-15T21:03:13.752Z,13.10
2024-02-15T21:08:20.316Z,13.40
2024-02-15T21:13:25.369Z,12.53
2024-02-15T21:18:32.225Z,15.90
2024-02-15T21:23:36.179Z,14.77
2024-02-15T21:28:40.771Z,15.30
2024-02-15T21:33:45.620Z,14.53
2024-02-15T21:38:49.168Z,16.33
2024-02-15T21:43:52.109Z,14.53
2024-02-15T21:48:56.489Z,14.40
2024-02-15T21:53:59.480Z,14.70
2024-02-15T21:59:02.455Z,14.80
2024-02-15T22:04:06.897Z,15.03
2024-02-15T22:09:09.933Z,13.70
2024-02-15T22:14:12.853Z,15.30
2024-02-15T22:19:17.365Z,13.40
2024-02-15T22:24:20.446Z,15.80
2024-02-15T22:29:23.450Z,15.50
2024-02-15T22:34:27.856Z,13.70
2024-02-15T22:39:31.125Z,16.97
2024-02-15T22:44:35.656Z,15.47
2024-02-15T22:49:40.060Z,14.13
2024-02-15T22:54:49.597Z,18.27
2024-02-15T22:59:53.442Z,14.53
2024-02-15T23:05:00.199Z,14.13
2024-02-15T23:10:03.307Z,13.07
2024-02-15T23:15:07.472Z,12.83
2024-02-15T23:20:13.355Z,13.53
2024-02-15T23:25:16.359Z,14.00
2024-02-15T23:30:19.428Z,13.10
2024-02-15T23:35:31.866Z,13.60
2024-02-15T23:40:34.778Z,12.87
2024-02-15T23:45:37.852Z,14.13
2024-02-15T23:50:42.158Z,11.30
2024-02-15T23:55:45.301Z,12.20
